sensor_id;sensor_type;location;lat;lon;timestamp;temperature;humidity
58529;DHT22;44322;52.968;5.816;2022-09-29T00:00:33;7.90;99.90
58529;DHT22;44322;52.968;5.816;2022-09-29T00:03:00;7.90;99.90
58529;DHT22;44322;52.968;5.816;2022-09-29T00:05:26;7.80;99.90
58529;DHT22;44322;52.968;5.816;2022-09-29T00:07:52;7.90;99.90
58529;DHT22;44322;52.968;5.816;2022-09-29T00:10:18;7.80;99.90
58529;DHT22;44322;52.968;5.816;2022-09-29T00:12:46;7.80;99.90
58529;DHT22;44322;52.968;5.816;2022-09-29T00:15:12;7.80;99.90
58529;DHT22;44322;52.968;5.816;2022-09-29T00:17:38;7.80;99.90
58529;DHT22;44322;52.968;5.816;2022-09-29T00:20:05;7.80;99.90
58529;DHT22;44322;52.968;5.816;2022-09-29T00:22:31;7.80;99.90
58529;DHT22;44322;52.968;5.816;2022-09-29T00:24:56;7.70;99.90
58529;DHT22;44322;52.968;5.816;2022-09-29T00:27:22;7.70;99.90
58529;DHT22;44322;52.968;5.816;2022-09-29T00:29:48;7.70;99.90
58529;DHT22;44322;52.968;5.816;2022-09-29T00:32:14;7.70;99.90
58529;DHT22;44322;52.968;5.816;2022-09-29T00:34:40;7.70;99.90
58529;DHT22;44322;52.968;5.816;2022-09-29T00:37:06;7.70;99.90
58529;DHT22;44322;52.968;5.816;2022-09-29T00:39:32;7.60;99.90
58529;DHT22;44322;52.968;5.816;2022-09-29T00:41:59;7.60;99.90
58529;DHT22;44322;52.968;5.816;2022-09-29T00:45:26;7.60;99.90
58529;DHT22;44322;52.968;5.816;2022-09-29T00:47:35;7.60;99.90
58529;DHT22;44322;52.968;5.816;2022-09-29T00:50:16;7.60;99.90
58529;DHT22;44322;52.968;5.816;2022-09-29T00:52:47;7.60;99.90
58529;DHT22;44322;52.968;5.816;2022-09-29T00:55:57;7.50;99.90
58529;DHT22;44322;52.968;5.816;2022-09-29T00:58:56;7.50;99.90
58529;DHT22;44322;52.968;5.816;2022-09-29T01:00:56;7.60;99.90
58529;DHT22;44322;52.968;5.816;2022-09-29T01:03:25;7.60;99.90
58529;DHT22;44322;52.968;5.816;2022-09-29T01:06:00;7.50;99.90
58529;DHT22;44322;52.968;5.816;2022-09-29T01:08:35;7.50;99.90
58529;DHT22;44322;52.968;5.816;2022-09-29T01:11:04;7.50;99.90
58529;DHT22;44322;52.968;5.816;2022-09-29T01:13:32;7.50;99.90
58529;DHT22;44322;52.968;5.816;2022-09-29T01:15:59;7.50;99.90
58529;DHT22;44322;52.968;5.816;2022-09-29T01:18:25;7.50;99.90
58529;DHT22;44322;52.968;5.816;2022-09-29T01:27:18;7.40;99.90
58529;DHT22;44322;52.968;5.816;2022-09-29T01:30:06;7.40;99.90
58529;DHT22;44322;52.968;5.816;2022-09-29T01:35:33;7.40;99.90
58529;DHT22;44322;52.968;5.816;2022-09-29T01:46:35;7.30;99.90
58529;DHT22;44322;52.968;5.816;2022-09-29T01:49:03;7.30;99.90
58529;DHT22;44322;52.968;5.816;2022-09-29T01:51:43;7.30;99.90
58529;DHT22;44322;52.968;5.816;2022-09-29T01:54:21;7.30;99.90
58529;DHT22;44322;52.968;5.816;2022-09-29T01:56:53;7.30;99.90
58529;DHT22;44322;52.968;5.816;2022-09-29T01:59:27;7.20;99.90
58529;DHT22;44322;52.968;5.816;2022-09-29T02:01:57;7.20;99.90
58529;DHT22;44322;52.968;5.816;2022-09-29T02:04:30;7.20;99.90
58529;DHT22;44322;52.968;5.816;2022-09-29T02:07:05;7.20;99.90
58529;DHT22;44322;52.968;5.816;2022-09-29T02:09:45;7.20;99.90
58529;DHT22;44322;52.968;5.816;2022-09-29T02:12:16;7.20;99.90
58529;DHT22;44322;52.968;5.816;2022-09-29T02:14:49;7.10;99.90
58529;DHT22;44322;52.968;5.816;2022-09-29T02:17:19;7.10;99.90
58529;DHT22;44322;52.968;5.816;2022-09-29T02:19:47;7.10;99.90
58529;DHT22;44322;52.968;5.816;2022-09-29T02:22:14;7.10;99.90
58529;DHT22;44322;52.968;5.816;2022-09-29T02:24:41;7.00;99.90
58529;DHT22;44322;52.968;5.816;2022-09-29T02:27:07;7.00;99.90
58529;DHT22;44322;52.968;5.816;2022-09-29T02:29:34;7.00;99.90
58529;DHT22;44322;52.968;5.816;2022-09-29T02:32:03;7.00;99.90
58529;DHT22;44322;52.968;5.816;2022-09-29T02:34:31;7.00;99.90
58529;DHT22;44322;52.968;5.816;2022-09-29T02:48:48;7.00;99.90
58529;DHT22;44322;52.968;5.816;2022-09-29T02:51:18;6.90;99.90
58529;DHT22;44322;52.968;5.816;2022-09-29T02:57:03;6.90;99.90
58529;DHT22;44322;52.968;5.816;2022-09-29T02:59:41;6.90;99.90
58529;DHT22;44322;52.968;5.816;2022-09-29T03:02:10;6.90;99.90
58529;DHT22;44322;52.968;5.816;2022-09-29T03:04:36;6.90;99.90
58529;DHT22;44322;52.968;5.816;2022-09-29T03:07:02;6.90;99.90
58529;DHT22;44322;52.968;5.816;2022-09-29T03:09:28;6.90;99.90
58529;DHT22;44322;52.968;5.816;2022-09-29T03:11:54;6.90;99.90
58529;DHT22;44322;52.968;5.816;2022-09-29T03:14:20;6.80;99.90
58529;DHT22;44322;52.968;5.816;2022-09-29T03:16:45;6.90;99.90
58529;DHT22;44322;52.968;5.816;2022-09-29T03:19:12;6.80;99.90
58529;DHT22;44322;52.968;5.816;2022-09-29T03:21:37;6.90;99.90
58529;DHT22;44322;52.968;5.816;2022-09-29T03:24:03;6.80;99.90
58529;DHT22;44322;52.968;5.816;2022-09-29T03:26:30;6.80;99.90
58529;DHT22;44322;52.968;5.816;2022-09-29T03:28:56;6.80;99.90
58529;DHT22;44322;52.968;5.816;2022-09-29T03:31:22;6.80;99.90
58529;DHT22;44322;52.968;5.816;2022-09-29T03:33:48;6.80;99.90
58529;DHT22;44322;52.968;5.816;2022-09-29T03:36:14;6.80;99.90
58529;DHT22;44322;52.968;5.816;2022-09-29T03:38:39;6.80;99.90
58529;DHT22;44322;52.968;5.816;2022-09-29T03:41:06;6.80;99.90
58529;DHT22;44322;52.968;5.816;2022-09-29T03:43:32;6.80;99.90
58529;DHT22;44322;52.968;5.816;2022-09-29T03:45:58;6.80;99.90
58529;DHT22;44322;52.968;5.816;2022-09-29T03:48:24;6.70;99.90
58529;DHT22;44322;52.968;5.816;2022-09-29T03:50:52;6.70;99.90
58529;DHT22;44322;52.968;5.816;2022-09-29T03:53:19;6.70;99.90
58529;DHT22;44322;52.968;5.816;2022-09-29T03:55:46;6.70;99.90
58529;DHT22;44322;52.968;5.816;2022-09-29T03:58:12;6.70;99.90
58529;DHT22;44322;52.968;5.816;2022-09-29T04:00:38;6.70;99.90
58529;DHT22;44322;52.968;5.816;2022-09-29T04:03:04;6.70;99.90
58529;DHT22;44322;52.968;5.816;2022-09-29T04:05:30;6.70;99.90
58529;DHT22;44322;52.968;5.816;2022-09-29T04:07:55;6.60;99.90
58529;DHT22;44322;52.968;5.816;2022-09-29T04:10:21;6.60;99.90
58529;DHT22;44322;52.968;5.816;2022-09-29T04:12:47;6.60;99.90
58529;DHT22;44322;52.968;5.816;2022-09-29T04:15:13;6.60;99.90
58529;DHT22;44322;52.968;5.816;2022-09-29T04:17:39;6.60;99.90
58529;DHT22;44322;52.968;5.816;2022-09-29T04:20:05;6.60;99.90
58529;DHT22;44322;52.968;5.816;2022-09-29T04:22:32;6.60;99.90
58529;DHT22;44322;52.968;5.816;2022-09-29T04:24:58;6.60;99.90
58529;DHT22;44322;52.968;5.816;2022-09-29T04:27:24;6.60;99.90
58529;DHT22;44322;52.968;5.816;2022-09-29T04:29:50;6.60;99.90
58529;DHT22;44322;52.968;5.816;2022-09-29T04:32:16;6.50;99.90
58529;DHT22;44322;52.968;5.816;2022-09-29T04:34:41;6.50;99.90
58529;DHT22;44322;52.968;5.816;2022-09-29T04:37:09;6.50;99.90
58529;DHT22;44322;52.968;5.816;2022-09-29T04:39:38;6.50;99.90
58529;DHT22;44322;52.968;5.816;2022-09-29T04:42:03;6.40;99.90
58529;DHT22;44322;52.968;5.816;2022-09-29T04:44:29;6.40;99.90
58529;DHT22;44322;52.968;5.816;2022-09-29T04:46:55;6.40;99.90
58529;DHT22;44322;52.968;5.816;2022-09-29T04:49:21;6.30;99.90
58529;DHT22;44322;52.968;5.816;2022-09-29T04:51:47;6.30;99.90
58529;DHT22;44322;52.968;5.816;2022-09-29T04:54:13;6.30;99.90
58529;DHT22;44322;52.968;5.816;2022-09-29T04:56:39;6.20;99.90
58529;DHT22;44322;52.968;5.816;2022-09-29T04:59:05;6.30;99.90
58529;DHT22;44322;52.968;5.816;2022-09-29T05:01:31;6.20;99.90
58529;DHT22;44322;52.968;5.816;2022-09-29T05:03:57;6.20;99.90
58529;DHT22;44322;52.968;5.816;2022-09-29T05:06:23;6.10;99.90
58529;DHT22;44322;52.968;5.816;2022-09-29T05:08:49;6.10;99.90
58529;DHT22;44322;52.968;5.816;2022-09-29T05:11:14;6.10;99.90
58529;DHT22;44322;52.968;5.816;2022-09-29T05:13:41;6.10;99.90
58529;DHT22;44322;52.968;5.816;2022-09-29T05:16:07;6.10;99.90
58529;DHT22;44322;52.968;5.816;2022-09-29T05:18:33;6.10;99.90
58529;DHT22;44322;52.968;5.816;2022-09-29T05:21:04;6.00;99.90
58529;DHT22;44322;52.968;5.816;2022-09-29T05:23:31;6.00;99.90
58529;DHT22;44322;52.968;5.816;2022-09-29T05:26:07;6.00;99.90
58529;DHT22;44322;52.968;5.816;2022-09-29T05:28:34;6.00;99.90
58529;DHT22;44322;52.968;5.816;2022-09-29T05:31:10;6.00;99.90
58529;DHT22;44322;52.968;5.816;2022-09-29T05:33:37;6.00;99.90
58529;DHT22;44322;52.968;5.816;2022-09-29T05:36:10;6.00;99.90
58529;DHT22;44322;52.968;5.816;2022-09-29T05:38:37;6.00;99.90
58529;DHT22;44322;52.968;5.816;2022-09-29T05:41:05;6.00;99.90
58529;DHT22;44322;52.968;5.816;2022-09-29T05:43:31;6.10;99.90
58529;DHT22;44322;52.968;5.816;2022-09-29T05:46:00;6.00;99.90
58529;DHT22;44322;52.968;5.816;2022-09-29T05:48:27;6.10;99.90
58529;DHT22;44322;52.968;5.816;2022-09-29T05:50:55;6.10;99.90
58529;DHT22;44322;52.968;5.816;2022-09-29T05:53:21;6.10;99.90
58529;DHT22;44322;52.968;5.816;2022-09-29T05:55:47;6.10;99.90
58529;DHT22;44322;52.968;5.816;2022-09-29T05:58:13;6.10;99.90
58529;DHT22;44322;52.968;5.816;2022-09-29T06:00:38;6.10;99.90
58529;DHT22;44322;52.968;5.816;2022-09-29T06:03:04;6.10;99.90
58529;DHT22;44322;52.968;5.816;2022-09-29T06:05:30;6.10;99.90
58529;DHT22;44322;52.968;5.816;2022-09-29T06:07:56;6.10;99.90
58529;DHT22;44322;52.968;5.816;2022-09-29T06:10:23;6.10;99.90
58529;DHT22;44322;52.968;5.816;2022-09-29T06:12:48;6.10;99.90
58529;DHT22;44322;52.968;5.816;2022-09-29T06:15:14;6.10;99.90
58529;DHT22;44322;52.968;5.816;2022-09-29T06:17:43;6.10;99.90
58529;DHT22;44322;52.968;5.816;2022-09-29T06:20:14;6.20;99.90
58529;DHT22;44322;52.968;5.816;2022-09-29T06:22:40;6.20;99.90
58529;DHT22;44322;52.968;5.816;2022-09-29T06:25:06;6.20;99.90
58529;DHT22;44322;52.968;5.816;2022-09-29T06:27:32;6.30;99.90
58529;DHT22;44322;52.968;5.816;2022-09-29T06:29:58;6.30;99.90
58529;DHT22;44322;52.968;5.816;2022-09-29T06:32:25;6.30;99.90
58529;DHT22;44322;52.968;5.816;2022-09-29T06:34:50;6.30;99.90
58529;DHT22;44322;52.968;5.816;2022-09-29T06:37:34;6.40;99.90
58529;DHT22;44322;52.968;5.816;2022-09-29T06:40:02;6.40;99.90
58529;DHT22;44322;52.968;5.816;2022-09-29T06:42:29;6.40;99.90
58529;DHT22;44322;52.968;5.816;2022-09-29T06:44:56;6.40;99.90
58529;DHT22;44322;52.968;5.816;2022-09-29T06:47:22;6.40;99.90
58529;DHT22;44322;52.968;5.816;2022-09-29T06:49:48;6.50;99.90
58529;DHT22;44322;52.968;5.816;2022-09-29T06:52:15;6.60;99.90
58529;DHT22;44322;52.968;5.816;2022-09-29T06:54:41;6.60;99.90
58529;DHT22;44322;52.968;5.816;2022-09-29T06:57:08;6.60;99.90
58529;DHT22;44322;52.968;5.816;2022-09-29T06:59:34;6.60;99.90
58529;DHT22;44322;52.968;5.816;2022-09-29T07:02:00;6.70;99.90
58529;DHT22;44322;52.968;5.816;2022-09-29T07:04:26;6.70;99.90
58529;DHT22;44322;52.968;5.816;2022-09-29T07:06:52;6.70;99.90
58529;DHT22;44322;52.968;5.816;2022-09-29T07:09:18;6.80;99.90
58529;DHT22;44322;52.968;5.816;2022-09-29T07:11:48;6.80;99.90
58529;DHT22;44322;52.968;5.816;2022-09-29T07:14:16;6.80;99.90
58529;DHT22;44322;52.968;5.816;2022-09-29T07:16:43;6.90;99.90
58529;DHT22;44322;52.968;5.816;2022-09-29T07:19:12;6.90;99.90
58529;DHT22;44322;52.968;5.816;2022-09-29T07:21:37;7.00;99.90
58529;DHT22;44322;52.968;5.816;2022-09-29T07:24:03;7.00;99.90
58529;DHT22;44322;52.968;5.816;2022-09-29T07:26:29;7.10;99.90
58529;DHT22;44322;52.968;5.816;2022-09-29T07:28:55;7.10;99.90
58529;DHT22;44322;52.968;5.816;2022-09-29T07:31:21;7.20;99.90
58529;DHT22;44322;52.968;5.816;2022-09-29T07:33:49;7.30;99.90
58529;DHT22;44322;52.968;5.816;2022-09-29T07:36:17;7.70;99.90
58529;DHT22;44322;52.968;5.816;2022-09-29T07:38:50;8.00;99.90
58529;DHT22;44322;52.968;5.816;2022-09-29T07:41:18;8.00;99.90
58529;DHT22;44322;52.968;5.816;2022-09-29T07:43:46;8.00;99.90
58529;DHT22;44322;52.968;5.816;2022-09-29T07:46:12;8.00;99.90
58529;DHT22;44322;52.968;5.816;2022-09-29T07:48:38;8.00;99.90
58529;DHT22;44322;52.968;5.816;2022-09-29T07:51:13;8.00;99.90
58529;DHT22;44322;52.968;5.816;2022-09-29T07:53:40;8.00;99.90
58529;DHT22;44322;52.968;5.816;2022-09-29T07:56:12;8.00;99.90
58529;DHT22;44322;52.968;5.816;2022-09-29T07:58:39;8.10;99.90
58529;DHT22;44322;52.968;5.816;2022-09-29T08:01:07;8.10;99.90
58529;DHT22;44322;52.968;5.816;2022-09-29T08:03:41;8.20;99.90
58529;DHT22;44322;52.968;5.816;2022-09-29T08:06:09;8.20;99.90
58529;DHT22;44322;52.968;5.816;2022-09-29T08:08:39;8.20;99.90
58529;DHT22;44322;52.968;5.816;2022-09-29T08:11:10;8.30;99.90
58529;DHT22;44322;52.968;5.816;2022-09-29T08:13:37;8.40;99.90
58529;DHT22;44322;52.968;5.816;2022-09-29T08:16:05;8.50;99.90
58529;DHT22;44322;52.968;5.816;2022-09-29T08:18:33;8.60;99.90
58529;DHT22;44322;52.968;5.816;2022-09-29T08:21:00;8.60;99.90
58529;DHT22;44322;52.968;5.816;2022-09-29T08:23:26;8.80;99.90
58529;DHT22;44322;52.968;5.816;2022-09-29T08:26:03;8.90;99.90
58529;DHT22;44322;52.968;5.816;2022-09-29T08:28:30;9.00;99.90
58529;DHT22;44322;52.968;5.816;2022-09-29T08:30:56;9.10;99.90
58529;DHT22;44322;52.968;5.816;2022-09-29T08:33:21;9.20;99.90
58529;DHT22;44322;52.968;5.816;2022-09-29T08:35:55;9.30;99.90
58529;DHT22;44322;52.968;5.816;2022-09-29T08:38:21;9.50;99.90
58529;DHT22;44322;52.968;5.816;2022-09-29T08:40:47;9.60;99.90
58529;DHT22;44322;52.968;5.816;2022-09-29T08:43:33;9.70;99.90
58529;DHT22;44322;52.968;5.816;2022-09-29T08:46:01;9.80;99.90
58529;DHT22;44322;52.968;5.816;2022-09-29T08:48:34;10.00;99.90
58529;DHT22;44322;52.968;5.816;2022-09-29T08:51:09;10.30;99.90
58529;DHT22;44322;52.968;5.816;2022-09-29T08:53:41;10.90;99.90
58529;DHT22;44322;52.968;5.816;2022-09-29T08:56:13;11.50;99.90
58529;DHT22;44322;52.968;5.816;2022-09-29T08:58:40;12.00;99.90
58529;DHT22;44322;52.968;5.816;2022-09-29T09:04:03;12.90;99.90
58529;DHT22;44322;52.968;5.816;2022-09-29T09:17:58;14.90;99.90
58529;DHT22;44322;52.968;5.816;2022-09-29T09:20:47;15.10;99.90
58529;DHT22;44322;52.968;5.816;2022-09-29T09:23:37;15.30;99.90
58529;DHT22;44322;52.968;5.816;2022-09-29T09:26:07;15.50;99.90
58529;DHT22;44322;52.968;5.816;2022-09-29T09:28:48;15.70;99.90
58529;DHT22;44322;52.968;5.816;2022-09-29T09:31:53;15.80;99.90
58529;DHT22;44322;52.968;5.816;2022-09-29T09:34:28;16.00;99.90
58529;DHT22;44322;52.968;5.816;2022-09-29T09:37:01;16.10;99.90
58529;DHT22;44322;52.968;5.816;2022-09-29T09:39:34;16.20;99.90
58529;DHT22;44322;52.968;5.816;2022-09-29T09:42:05;16.20;99.90
58529;DHT22;44322;52.968;5.816;2022-09-29T09:44:38;16.20;99.90
58529;DHT22;44322;52.968;5.816;2022-09-29T09:47:30;16.20;99.90
58529;DHT22;44322;52.968;5.816;2022-09-29T09:50:12;16.20;99.90
58529;DHT22;44322;52.968;5.816;2022-09-29T09:52:43;16.10;99.90
58529;DHT22;44322;52.968;5.816;2022-09-29T10:00:45;16.00;99.90
58529;DHT22;44322;52.968;5.816;2022-09-29T10:03:12;16.00;99.90
58529;DHT22;44322;52.968;5.816;2022-09-29T10:05:45;16.00;99.90
58529;DHT22;44322;52.968;5.816;2022-09-29T10:10:50;15.80;99.90
58529;DHT22;44322;52.968;5.816;2022-09-29T10:13:16;15.80;99.90
58529;DHT22;44322;52.968;5.816;2022-09-29T10:16:07;15.90;99.90
58529;DHT22;44322;52.968;5.816;2022-09-29T10:18:46;15.90;99.90
58529;DHT22;44322;52.968;5.816;2022-09-29T10:23:55;16.10;99.90
58529;DHT22;44322;52.968;5.816;2022-09-29T10:26:45;16.20;99.90
58529;DHT22;44322;52.968;5.816;2022-09-29T10:29:27;16.30;99.90
58529;DHT22;44322;52.968;5.816;2022-09-29T10:32:20;16.30;99.90
58529;DHT22;44322;52.968;5.816;2022-09-29T10:34:53;16.30;99.90
58529;DHT22;44322;52.968;5.816;2022-09-29T10:37:37;16.10;99.90
58529;DHT22;44322;52.968;5.816;2022-09-29T10:42:40;15.80;99.90
58529;DHT22;44322;52.968;5.816;2022-09-29T10:47:32;15.70;99.90
58529;DHT22;44322;52.968;5.816;2022-09-29T10:50:23;15.60;99.90
58529;DHT22;44322;52.968;5.816;2022-09-29T10:52:50;15.40;99.90
58529;DHT22;44322;52.968;5.816;2022-09-29T10:55:47;15.30;99.90
58529;DHT22;44322;52.968;5.816;2022-09-29T10:58:32;15.40;99.90
58529;DHT22;44322;52.968;5.816;2022-09-29T11:01:14;15.50;99.90
58529;DHT22;44322;52.968;5.816;2022-09-29T11:04:13;15.80;99.90
58529;DHT22;44322;52.968;5.816;2022-09-29T11:06:35;16.10;99.90
58529;DHT22;44322;52.968;5.816;2022-09-29T11:11:51;16.70;99.90
58529;DHT22;44322;52.968;5.816;2022-09-29T11:17:19;17.20;99.90
58529;DHT22;44322;52.968;5.816;2022-09-29T11:19:46;17.50;99.90
58529;DHT22;44322;52.968;5.816;2022-09-29T11:25:44;17.50;99.90
58529;DHT22;44322;52.968;5.816;2022-09-29T11:28:19;17.40;99.90
58529;DHT22;44322;52.968;5.816;2022-09-29T11:33:53;17.50;99.90
58529;DHT22;44322;52.968;5.816;2022-09-29T11:41:56;16.90;99.90
58529;DHT22;44322;52.968;5.816;2022-09-29T11:45:00;16.80;99.90
58529;DHT22;44322;52.968;5.816;2022-09-29T11:53:48;17.20;99.90
58529;DHT22;44322;52.968;5.816;2022-09-29T12:04:47;17.60;99.90
58529;DHT22;44322;52.968;5.816;2022-09-29T12:07:30;17.50;99.90
58529;DHT22;44322;52.968;5.816;2022-09-29T12:18:44;18.10;96.10
58529;DHT22;44322;52.968;5.816;2022-09-29T12:21:13;18.20;96.80
58529;DHT22;44322;52.968;5.816;2022-09-29T12:23:42;18.50;96.20
58529;DHT22;44322;52.968;5.816;2022-09-29T12:26:18;18.60;93.80
58529;DHT22;44322;52.968;5.816;2022-09-29T12:28:50;18.80;92.60
58529;DHT22;44322;52.968;5.816;2022-09-29T12:31:41;18.90;92.50
58529;DHT22;44322;52.968;5.816;2022-09-29T12:34:21;19.00;93.70
58529;DHT22;44322;52.968;5.816;2022-09-29T12:36:58;19.10;92.90
58529;DHT22;44322;52.968;5.816;2022-09-29T12:39:43;19.20;90.90
58529;DHT22;44322;52.968;5.816;2022-09-29T12:45:39;19.40;90.00
58529;DHT22;44322;52.968;5.816;2022-09-29T12:53:33;19.00;91.10
58529;DHT22;44322;52.968;5.816;2022-09-29T12:56:09;18.60;94.10
58529;DHT22;44322;52.968;5.816;2022-09-29T13:01:25;18.00;97.70
58529;DHT22;44322;52.968;5.816;2022-09-29T13:04:35;17.80;96.70
58529;DHT22;44322;52.968;5.816;2022-09-29T13:29:09;16.30;99.90
58529;DHT22;44322;52.968;5.816;2022-09-29T13:31:37;16.30;99.90
58529;DHT22;44322;52.968;5.816;2022-09-29T13:34:04;16.30;99.90
58529;DHT22;44322;52.968;5.816;2022-09-29T13:36:38;16.20;99.90
58529;DHT22;44322;52.968;5.816;2022-09-29T13:39:07;16.20;99.90
58529;DHT22;44322;52.968;5.816;2022-09-29T13:41:42;16.10;99.90
58529;DHT22;44322;52.968;5.816;2022-09-29T13:44:22;16.10;99.90
58529;DHT22;44322;52.968;5.816;2022-09-29T13:46:50;16.10;99.90
58529;DHT22;44322;52.968;5.816;2022-09-29T13:49:28;16.00;99.90
58529;DHT22;44322;52.968;5.816;2022-09-29T13:51:55;16.00;99.90
58529;DHT22;44322;52.968;5.816;2022-09-29T13:57:17;16.00;99.90
58529;DHT22;44322;52.968;5.816;2022-09-29T14:04:52;16.00;99.90
58529;DHT22;44322;52.968;5.816;2022-09-29T14:13:03;16.50;99.90
58529;DHT22;44322;52.968;5.816;2022-09-29T14:15:51;16.60;99.90
58529;DHT22;44322;52.968;5.816;2022-09-29T14:18:31;16.60;99.20
58529;DHT22;44322;52.968;5.816;2022-09-29T14:21:47;16.50;99.90
58529;DHT22;44322;52.968;5.816;2022-09-29T14:27:27;16.50;99.90
58529;DHT22;44322;52.968;5.816;2022-09-29T14:35:24;16.50;99.90
58529;DHT22;44322;52.968;5.816;2022-09-29T14:38:17;16.50;99.90
58529;DHT22;44322;52.968;5.816;2022-09-29T14:41:19;16.50;99.90
58529;DHT22;44322;52.968;5.816;2022-09-29T14:43:54;16.50;99.90
58529;DHT22;44322;52.968;5.816;2022-09-29T15:00:18;16.70;98.50
58529;DHT22;44322;52.968;5.816;2022-09-29T15:02:50;16.60;98.00
58529;DHT22;44322;52.968;5.816;2022-09-29T15:05:27;16.50;97.50
58529;DHT22;44322;52.968;5.816;2022-09-29T15:07:53;16.50;97.90
58529;DHT22;44322;52.968;5.816;2022-09-29T15:10:28;16.70;96.20
58529;DHT22;44322;52.968;5.816;2022-09-29T15:13:15;16.90;96.90
58529;DHT22;44322;52.968;5.816;2022-09-29T15:15:47;17.20;96.00
58529;DHT22;44322;52.968;5.816;2022-09-29T15:21:16;17.80;93.20
58529;DHT22;44322;52.968;5.816;2022-09-29T15:26:34;17.80;97.70
58529;DHT22;44322;52.968;5.816;2022-09-29T15:29:05;17.70;99.20
58529;DHT22;44322;52.968;5.816;2022-09-29T15:31:32;17.70;99.80
58529;DHT22;44322;52.968;5.816;2022-09-29T15:33:59;17.80;99.00
58529;DHT22;44322;52.968;5.816;2022-09-29T15:36:36;17.90;98.40
58529;DHT22;44322;52.968;5.816;2022-09-29T15:39:26;17.90;98.40
58529;DHT22;44322;52.968;5.816;2022-09-29T15:42:00;17.80;98.40
58529;DHT22;44322;52.968;5.816;2022-09-29T15:44:28;17.70;99.20
58529;DHT22;44322;52.968;5.816;2022-09-29T15:46:57;17.60;99.90
58529;DHT22;44322;52.968;5.816;2022-09-29T15:49:25;17.40;99.90
58529;DHT22;44322;52.968;5.816;2022-09-29T15:52:04;17.40;99.90
58529;DHT22;44322;52.968;5.816;2022-09-29T15:54:35;17.20;99.90
58529;DHT22;44322;52.968;5.816;2022-09-29T15:57:05;17.10;99.90
58529;DHT22;44322;52.968;5.816;2022-09-29T15:59:50;17.00;99.90
58529;DHT22;44322;52.968;5.816;2022-09-29T16:04:54;16.70;99.90
58529;DHT22;44322;52.968;5.816;2022-09-29T16:07:27;16.50;99.90
58529;DHT22;44322;52.968;5.816;2022-09-29T16:10:02;16.40;99.90
58529;DHT22;44322;52.968;5.816;2022-09-29T16:12:32;16.20;99.90
58529;DHT22;44322;52.968;5.816;2022-09-29T16:14:59;16.10;99.90
58529;DHT22;44322;52.968;5.816;2022-09-29T16:17:25;16.00;99.90
58529;DHT22;44322;52.968;5.816;2022-09-29T16:19:52;15.90;99.90
58529;DHT22;44322;52.968;5.816;2022-09-29T16:22:24;15.80;99.90
58529;DHT22;44322;52.968;5.816;2022-09-29T16:25:17;15.70;99.90
58529;DHT22;44322;52.968;5.816;2022-09-29T16:28:08;15.70;99.90
58529;DHT22;44322;52.968;5.816;2022-09-29T16:31:17;15.60;99.90
58529;DHT22;44322;52.968;5.816;2022-09-29T16:33:45;15.60;99.90
58529;DHT22;44322;52.968;5.816;2022-09-29T16:36:41;15.50;99.90
58529;DHT22;44322;52.968;5.816;2022-09-29T16:39:15;15.50;99.90
58529;DHT22;44322;52.968;5.816;2022-09-29T16:41:47;15.50;99.90
58529;DHT22;44322;52.968;5.816;2022-09-29T16:53:31;15.30;99.90
58529;DHT22;44322;52.968;5.816;2022-09-29T16:56:00;15.20;99.90
58529;DHT22;44322;52.968;5.816;2022-09-29T16:58:27;15.10;99.90
58529;DHT22;44322;52.968;5.816;2022-09-29T17:00:54;15.10;99.90
58529;DHT22;44322;52.968;5.816;2022-09-29T17:03:19;15.00;99.90
58529;DHT22;44322;52.968;5.816;2022-09-29T17:05:46;14.90;99.90
58529;DHT22;44322;52.968;5.816;2022-09-29T17:08:27;14.90;99.90
58529;DHT22;44322;52.968;5.816;2022-09-29T17:10:55;14.80;99.90
58529;DHT22;44322;52.968;5.816;2022-09-29T17:13:22;14.80;99.90
58529;DHT22;44322;52.968;5.816;2022-09-29T17:15:50;14.70;99.90
58529;DHT22;44322;52.968;5.816;2022-09-29T17:18:18;14.70;99.90
58529;DHT22;44322;52.968;5.816;2022-09-29T17:20:44;14.60;99.90
58529;DHT22;44322;52.968;5.816;2022-09-29T17:23:10;14.60;99.90
58529;DHT22;44322;52.968;5.816;2022-09-29T17:25:43;14.60;99.90
58529;DHT22;44322;52.968;5.816;2022-09-29T17:28:18;14.50;99.90
58529;DHT22;44322;52.968;5.816;2022-09-29T17:30:45;14.40;99.90
58529;DHT22;44322;52.968;5.816;2022-09-29T17:33:13;14.30;99.90
58529;DHT22;44322;52.968;5.816;2022-09-29T17:35:45;14.20;99.90
58529;DHT22;44322;52.968;5.816;2022-09-29T17:38:13;14.20;99.90
58529;DHT22;44322;52.968;5.816;2022-09-29T17:40:59;14.10;99.90
58529;DHT22;44322;52.968;5.816;2022-09-29T17:43:27;14.00;99.90
58529;DHT22;44322;52.968;5.816;2022-09-29T17:45:56;13.90;99.90
58529;DHT22;44322;52.968;5.816;2022-09-29T17:48:26;13.90;99.90
58529;DHT22;44322;52.968;5.816;2022-09-29T17:50:54;13.80;99.90
58529;DHT22;44322;52.968;5.816;2022-09-29T17:53:22;13.80;99.90
58529;DHT22;44322;52.968;5.816;2022-09-29T17:55:50;13.70;99.90
58529;DHT22;44322;52.968;5.816;2022-09-29T17:58:19;13.60;99.90
58529;DHT22;44322;52.968;5.816;2022-09-29T18:00:50;13.60;99.90
58529;DHT22;44322;52.968;5.816;2022-09-29T18:03:18;13.50;99.90
58529;DHT22;44322;52.968;5.816;2022-09-29T18:05:49;13.50;99.90
58529;DHT22;44322;52.968;5.816;2022-09-29T18:08:21;13.40;99.90
58529;DHT22;44322;52.968;5.816;2022-09-29T18:10:56;13.40;99.90
58529;DHT22;44322;52.968;5.816;2022-09-29T18:13:23;13.30;99.90
58529;DHT22;44322;52.968;5.816;2022-09-29T18:15:49;13.30;99.90
58529;DHT22;44322;52.968;5.816;2022-09-29T18:18:17;13.20;99.90
58529;DHT22;44322;52.968;5.816;2022-09-29T18:20:45;13.20;99.90
58529;DHT22;44322;52.968;5.816;2022-09-29T18:23:15;13.10;99.90
58529;DHT22;44322;52.968;5.816;2022-09-29T18:25:42;13.10;99.90
58529;DHT22;44322;52.968;5.816;2022-09-29T18:28:13;13.10;99.90
58529;DHT22;44322;52.968;5.816;2022-09-29T18:30:43;13.00;99.90
58529;DHT22;44322;52.968;5.816;2022-09-29T18:33:19;13.10;99.90
58529;DHT22;44322;52.968;5.816;2022-09-29T18:35:50;13.00;99.90
58529;DHT22;44322;52.968;5.816;2022-09-29T18:38:17;13.00;99.90
58529;DHT22;44322;52.968;5.816;2022-09-29T18:40:42;12.90;99.90
58529;DHT22;44322;52.968;5.816;2022-09-29T18:43:12;12.90;99.90
58529;DHT22;44322;52.968;5.816;2022-09-29T18:45:39;12.80;99.90
58529;DHT22;44322;52.968;5.816;2022-09-29T18:48:13;12.70;99.90
58529;DHT22;44322;52.968;5.816;2022-09-29T18:50:44;12.70;99.90
58529;DHT22;44322;52.968;5.816;2022-09-29T18:53:11;12.70;99.90
58529;DHT22;44322;52.968;5.816;2022-09-29T18:55:38;12.70;99.90
58529;DHT22;44322;52.968;5.816;2022-09-29T18:58:08;12.60;99.90
58529;DHT22;44322;52.968;5.816;2022-09-29T19:00:37;12.60;99.90
58529;DHT22;44322;52.968;5.816;2022-09-29T19:03:04;12.50;99.90
58529;DHT22;44322;52.968;5.816;2022-09-29T19:05:32;12.40;99.90
58529;DHT22;44322;52.968;5.816;2022-09-29T19:08:01;12.40;99.90
58529;DHT22;44322;52.968;5.816;2022-09-29T19:10:28;12.40;99.90
58529;DHT22;44322;52.968;5.816;2022-09-29T19:12:58;12.30;99.90
58529;DHT22;44322;52.968;5.816;2022-09-29T19:15:26;12.30;99.90